sensor_id;sensor_type;location;lat;lon;timestamp;P1;durP1;ratioP1;P2;durP2;ratioP2
49934;SDS011;39898;41.762;26.200;2022-12-29T00:02:19;38.17;;;16.70;;
49934;SDS011;39898;41.762;26.200;2022-12-29T00:04:46;40.90;;;16.25;;
49934;SDS011;39898;41.762;26.200;2022-12-29T00:07:12;34.10;;;12.65;;
49934;SDS011;39898;41.762;26.200;2022-12-29T00:09:39;37.00;;;14.32;;
49934;SDS011;39898;41.762;26.200;2022-12-29T00:12:05;31.92;;;14.80;;
49934;SDS011;39898;41.762;26.200;2022-12-29T00:14:32;39.10;;;14.90;;
49934;SDS011;39898;41.762;26.200;2022-12-29T00:17:17;30.25;;;13.35;;
49934;SDS011;39898;41.762;26.200;2022-12-29T00:19:46;35.38;;;14.23;;
49934;SDS011;39898;41.762;26.200;2022-12-29T00:22:32;36.75;;;13.57;;
49934;SDS011;39898;41.762;26.200;2022-12-29T00:25:17;35.63;;;13.82;;
49934;SDS011;39898;41.762;26.200;2022-12-29T00:28:02;31.90;;;14.43;;
49934;SDS011;39898;41.762;26.200;2022-12-29T00:30:49;35.10;;;15.05;;
49934;SDS011;39898;41.762;26.200;2022-12-29T00:33:34;38.78;;;14.80;;
49934;SDS011;39898;41.762;26.200;2022-12-29T00:36:23;39.42;;;16.10;;
49934;SDS011;39898;41.762;26.200;2022-12-29T00:39:04;35.20;;;16.77;;
49934;SDS011;39898;41.762;26.200;2022-12-29T00:42:02;31.77;;;16.27;;
49934;SDS011;39898;41.762;26.200;2022-12-29T00:45:06;60.85;;;21.25;;
49934;SDS011;39898;41.762;26.200;2022-12-29T00:47:32;46.08;;;19.15;;
49934;SDS011;39898;41.762;26.200;2022-12-29T00:49:59;37.17;;;18.65;;
49934;SDS011;39898;41.762;26.200;2022-12-29T00:52:26;41.53;;;22.45;;
49934;SDS011;39898;41.762;26.200;2022-12-29T00:54:52;32.75;;;16.50;;
49934;SDS011;39898;41.762;26.200;2022-12-29T00:57:19;28.75;;;16.02;;
49934;SDS011;39898;41.762;26.200;2022-12-29T00:59:46;32.03;;;16.90;;
49934;SDS011;39898;41.762;26.200;2022-12-29T01:02:12;28.30;;;15.73;;
49934;SDS011;39898;41.762;26.200;2022-12-29T01:04:39;29.58;;;16.00;;
49934;SDS011;39898;41.762;26.200;2022-12-29T01:07:06;27.52;;;14.40;;
49934;SDS011;39898;41.762;26.200;2022-12-29T01:09:32;23.83;;;12.63;;
49934;SDS011;39898;41.762;26.200;2022-12-29T01:12:18;23.50;;;12.75;;
49934;SDS011;39898;41.762;26.200;2022-12-29T01:15:05;18.65;;;10.02;;
49934;SDS011;39898;41.762;26.200;2022-12-29T01:17:32;28.33;;;13.60;;
49934;SDS011;39898;41.762;26.200;2022-12-29T01:19:59;20.08;;;9.15;;
49934;SDS011;39898;41.762;26.200;2022-12-29T01:22:27;15.93;;;8.87;;
49934;SDS011;39898;41.762;26.200;2022-12-29T01:24:53;19.23;;;8.82;;
49934;SDS011;39898;41.762;26.200;2022-12-29T01:27:20;22.13;;;10.48;;
49934;SDS011;39898;41.762;26.200;2022-12-29T01:29:47;22.00;;;9.75;;
49934;SDS011;39898;41.762;26.200;2022-12-29T01:32:14;17.65;;;9.65;;
49934;SDS011;39898;41.762;26.200;2022-12-29T01:34:43;22.42;;;10.38;;
49934;SDS011;39898;41.762;26.200;2022-12-29T01:37:10;92.78;;;26.83;;
49934;SDS011;39898;41.762;26.200;2022-12-29T01:39:37;54.67;;;17.63;;
49934;SDS011;39898;41.762;26.200;2022-12-29T01:42:03;40.35;;;14.85;;
49934;SDS011;39898;41.762;26.200;2022-12-29T01:47:29;31.58;;;12.27;;
49934;SDS011;39898;41.762;26.200;2022-12-29T01:50:07;27.77;;;11.88;;
49934;SDS011;39898;41.762;26.200;2022-12-29T01:52:40;41.67;;;13.82;;
49934;SDS011;39898;41.762;26.200;2022-12-29T01:55:13;39.38;;;16.38;;
49934;SDS011;39898;41.762;26.200;2022-12-29T01:57:43;41.35;;;15.75;;
49934;SDS011;39898;41.762;26.200;2022-12-29T02:00:14;38.67;;;16.38;;
49934;SDS011;39898;41.762;26.200;2022-12-29T02:02:47;47.58;;;20.00;;
49934;SDS011;39898;41.762;26.200;2022-12-29T02:05:27;64.95;;;23.15;;
49934;SDS011;39898;41.762;26.200;2022-12-29T02:08:00;51.97;;;23.33;;
49934;SDS011;39898;41.762;26.200;2022-12-29T02:10:28;84.07;;;30.10;;
49934;SDS011;39898;41.762;26.200;2022-12-29T02:12:57;76.78;;;28.75;;
49934;SDS011;39898;41.762;26.200;2022-12-29T02:15:45;73.47;;;24.73;;
49934;SDS011;39898;41.762;26.200;2022-12-29T02:32:42;58.58;;;20.58;;
49934;SDS011;39898;41.762;26.200;2022-12-29T02:38:12;45.33;;;18.95;;
49934;SDS011;39898;41.762;26.200;2022-12-29T02:40:53;49.92;;;19.67;;
49934;SDS011;39898;41.762;26.200;2022-12-29T02:46:21;46.53;;;17.50;;
49934;SDS011;39898;41.762;26.200;2022-12-29T02:49:07;51.57;;;17.87;;
49934;SDS011;39898;41.762;26.200;2022-12-29T02:51:39;39.05;;;16.13;;
49934;SDS011;39898;41.762;26.200;2022-12-29T02:54:16;34.97;;;14.98;;
49934;SDS011;39898;41.762;26.200;2022-12-29T02:57:05;36.95;;;13.25;;
49934;SDS011;39898;41.762;26.200;2022-12-29T02:59:41;41.33;;;16.88;;
49934;SDS011;39898;41.762;26.200;2022-12-29T03:10:14;42.78;;;16.40;;
49934;SDS011;39898;41.762;26.200;2022-12-29T03:18:45;51.42;;;16.63;;
49934;SDS011;39898;41.762;26.200;2022-12-29T03:24:29;33.00;;;13.13;;
49934;SDS011;39898;41.762;26.200;2022-12-29T03:26:59;31.15;;;11.40;;
49934;SDS011;39898;41.762;26.200;2022-12-29T03:29:29;26.77;;;10.07;;
49934;SDS011;39898;41.762;26.200;2022-12-29T03:31:59;21.65;;;9.50;;
49934;SDS011;39898;41.762;26.200;2022-12-29T03:34:29;24.90;;;10.88;;
49934;SDS011;39898;41.762;26.200;2022-12-29T03:42:03;33.17;;;12.02;;
49934;SDS011;39898;41.762;26.200;2022-12-29T03:44:34;25.65;;;11.45;;
49934;SDS011;39898;41.762;26.200;2022-12-29T03:47:03;37.92;;;12.90;;
49934;SDS011;39898;41.762;26.200;2022-12-29T03:49:30;36.28;;;17.25;;
49934;SDS011;39898;41.762;26.200;2022-12-29T03:51:56;28.48;;;15.85;;
49934;SDS011;39898;41.762;26.200;2022-12-29T03:54:23;30.48;;;12.05;;
49934;SDS011;39898;41.762;26.200;2022-12-29T03:56:50;23.93;;;10.50;;
49934;SDS011;39898;41.762;26.200;2022-12-29T03:59:17;33.75;;;13.60;;
49934;SDS011;39898;41.762;26.200;2022-12-29T04:01:44;40.92;;;14.75;;
49934;SDS011;39898;41.762;26.200;2022-12-29T04:04:11;57.90;;;23.45;;
49934;SDS011;39898;41.762;26.200;2022-12-29T04:06:37;50.80;;;22.85;;
49934;SDS011;39898;41.762;26.200;2022-12-29T04:09:04;71.10;;;26.45;;
49934;SDS011;39898;41.762;26.200;2022-12-29T04:11:31;44.73;;;17.27;;
49934;SDS011;39898;41.762;26.200;2022-12-29T04:13:59;37.17;;;18.52;;
49934;SDS011;39898;41.762;26.200;2022-12-29T04:16:26;78.95;;;40.47;;
49934;SDS011;39898;41.762;26.200;2022-12-29T04:18:53;71.03;;;28.88;;
49934;SDS011;39898;41.762;26.200;2022-12-29T04:21:20;81.28;;;36.25;;
49934;SDS011;39898;41.762;26.200;2022-12-29T04:23:47;64.82;;;28.45;;
49934;SDS011;39898;41.762;26.200;2022-12-29T04:26:13;82.10;;;38.85;;
49934;SDS011;39898;41.762;26.200;2022-12-29T04:28:40;97.30;;;24.88;;
49934;SDS011;39898;41.762;26.200;2022-12-29T04:31:07;116.50;;;49.88;;
49934;SDS011;39898;41.762;26.200;2022-12-29T04:33:34;127.03;;;63.20;;
49934;SDS011;39898;41.762;26.200;2022-12-29T04:36:00;132.32;;;61.80;;
49934;SDS011;39898;41.762;26.200;2022-12-29T04:38:27;144.68;;;73.60;;
49934;SDS011;39898;41.762;26.200;2022-12-29T04:40:54;114.72;;;54.42;;
49934;SDS011;39898;41.762;26.200;2022-12-29T04:43:21;111.05;;;57.22;;
49934;SDS011;39898;41.762;26.200;2022-12-29T04:45:50;68.75;;;33.05;;
49934;SDS011;39898;41.762;26.200;2022-12-29T04:48:17;84.22;;;31.58;;
49934;SDS011;39898;41.762;26.200;2022-12-29T04:50:44;113.13;;;48.30;;
49934;SDS011;39898;41.762;26.200;2022-12-29T04:53:10;130.80;;;62.03;;
49934;SDS011;39898;41.762;26.200;2022-12-29T04:55:37;82.35;;;42.17;;
49934;SDS011;39898;41.762;26.200;2022-12-29T04:58:04;62.17;;;28.80;;
49934;SDS011;39898;41.762;26.200;2022-12-29T05:00:31;48.70;;;24.27;;
49934;SDS011;39898;41.762;26.200;2022-12-29T05:02:58;44.88;;;23.75;;
49934;SDS011;39898;41.762;26.200;2022-12-29T05:05:25;42.72;;;22.55;;
49934;SDS011;39898;41.762;26.200;2022-12-29T05:07:52;42.28;;;21.35;;
49934;SDS011;39898;41.762;26.200;2022-12-29T05:10:19;44.42;;;22.13;;
49934;SDS011;39898;41.762;26.200;2022-12-29T05:12:45;49.63;;;22.63;;
49934;SDS011;39898;41.762;26.200;2022-12-29T05:15:12;47.95;;;23.48;;
49934;SDS011;39898;41.762;26.200;2022-12-29T05:20:44;69.75;;;24.55;;
49934;SDS011;39898;41.762;26.200;2022-12-29T05:25:38;65.53;;;29.48;;
49934;SDS011;39898;41.762;26.200;2022-12-29T05:28:05;62.60;;;28.02;;
49934;SDS011;39898;41.762;26.200;2022-12-29T05:30:32;74.22;;;24.92;;
49934;SDS011;39898;41.762;26.200;2022-12-29T05:32:59;56.45;;;25.35;;
49934;SDS011;39898;41.762;26.200;2022-12-29T05:35:26;75.20;;;28.55;;
49934;SDS011;39898;41.762;26.200;2022-12-29T05:37:52;49.88;;;22.20;;
49934;SDS011;39898;41.762;26.200;2022-12-29T05:40:19;62.65;;;22.00;;
49934;SDS011;39898;41.762;26.200;2022-12-29T05:42:46;52.85;;;21.70;;
49934;SDS011;39898;41.762;26.200;2022-12-29T05:45:12;50.85;;;22.13;;
49934;SDS011;39898;41.762;26.200;2022-12-29T05:47:39;53.33;;;22.40;;
49934;SDS011;39898;41.762;26.200;2022-12-29T05:50:06;45.25;;;21.30;;
49934;SDS011;39898;41.762;26.200;2022-12-29T05:52:44;58.73;;;24.83;;
49934;SDS011;39898;41.762;26.200;2022-12-29T05:55:10;57.35;;;27.23;;
49934;SDS011;39898;41.762;26.200;2022-12-29T05:57:38;55.40;;;22.77;;
49934;SDS011;39898;41.762;26.200;2022-12-29T06:00:05;68.78;;;31.58;;
49934;SDS011;39898;41.762;26.200;2022-12-29T06:04:59;75.70;;;27.75;;
49934;SDS011;39898;41.762;26.200;2022-12-29T06:07:26;91.22;;;32.35;;
49934;SDS011;39898;41.762;26.200;2022-12-29T06:09:53;110.40;;;27.90;;
49934;SDS011;39898;41.762;26.200;2022-12-29T06:12:19;146.85;;;26.48;;
49934;SDS011;39898;41.762;26.200;2022-12-29T06:14:46;69.22;;;27.15;;
49934;SDS011;39898;41.762;26.200;2022-12-29T06:17:13;61.47;;;24.25;;
49934;SDS011;39898;41.762;26.200;2022-12-29T06:19:39;65.18;;;29.73;;
49934;SDS011;39898;41.762;26.200;2022-12-29T06:22:06;82.10;;;32.58;;
49934;SDS011;39898;41.762;26.200;2022-12-29T06:24:33;88.22;;;38.80;;
49934;SDS011;39898;41.762;26.200;2022-12-29T06:27:00;98.45;;;41.42;;
49934;SDS011;39898;41.762;26.200;2022-12-29T06:29:27;154.13;;;66.57;;
49934;SDS011;39898;41.762;26.200;2022-12-29T06:31:54;113.45;;;50.70;;
49934;SDS011;39898;41.762;26.200;2022-12-29T06:34:24;104.97;;;47.40;;
49934;SDS011;39898;41.762;26.200;2022-12-29T06:36:51;126.25;;;54.85;;
49934;SDS011;39898;41.762;26.200;2022-12-29T06:39:18;123.50;;;51.40;;
49934;SDS011;39898;41.762;26.200;2022-12-29T06:41:45;90.57;;;41.22;;
49934;SDS011;39898;41.762;26.200;2022-12-29T06:44:11;73.38;;;32.97;;
49934;SDS011;39898;41.762;26.200;2022-12-29T06:46:38;59.75;;;28.05;;
49934;SDS011;39898;41.762;26.200;2022-12-29T06:49:05;59.08;;;30.40;;
49934;SDS011;39898;41.762;26.200;2022-12-29T06:51:32;70.90;;;32.78;;
49934;SDS011;39898;41.762;26.200;2022-12-29T06:53:58;102.20;;;46.10;;
49934;SDS011;39898;41.762;26.200;2022-12-29T06:56:25;113.18;;;45.58;;
49934;SDS011;39898;41.762;26.200;2022-12-29T06:58:52;112.35;;;47.75;;
49934;SDS011;39898;41.762;26.200;2022-12-29T07:01:19;85.93;;;34.47;;
49934;SDS011;39898;41.762;26.200;2022-12-29T07:03:45;101.88;;;47.45;;
49934;SDS011;39898;41.762;26.200;2022-12-29T07:06:12;58.65;;;28.50;;
49934;SDS011;39898;41.762;26.200;2022-12-29T07:08:39;115.82;;;46.67;;
49934;SDS011;39898;41.762;26.200;2022-12-29T07:11:05;115.80;;;49.60;;
49934;SDS011;39898;41.762;26.200;2022-12-29T07:13:32;84.47;;;38.03;;
49934;SDS011;39898;41.762;26.200;2022-12-29T07:15:59;78.45;;;32.95;;
49934;SDS011;39898;41.762;26.200;2022-12-29T07:18:26;66.43;;;31.40;;
49934;SDS011;39898;41.762;26.200;2022-12-29T07:20:52;65.65;;;29.65;;
49934;SDS011;39898;41.762;26.200;2022-12-29T07:23:19;55.28;;;27.73;;
49934;SDS011;39898;41.762;26.200;2022-12-29T07:25:46;48.92;;;23.50;;
49934;SDS011;39898;41.762;26.200;2022-12-29T07:28:13;32.30;;;15.90;;
49934;SDS011;39898;41.762;26.200;2022-12-29T07:30:39;39.10;;;18.35;;
49934;SDS011;39898;41.762;26.200;2022-12-29T07:33:06;32.88;;;15.38;;
49934;SDS011;39898;41.762;26.200;2022-12-29T07:35:33;38.33;;;16.73;;
49934;SDS011;39898;41.762;26.200;2022-12-29T07:38:01;36.08;;;18.10;;
49934;SDS011;39898;41.762;26.200;2022-12-29T07:40:27;48.13;;;21.27;;
49934;SDS011;39898;41.762;26.200;2022-12-29T07:42:54;64.32;;;28.40;;
49934;SDS011;39898;41.762;26.200;2022-12-29T07:45:20;83.70;;;44.88;;
49934;SDS011;39898;41.762;26.200;2022-12-29T07:47:48;79.82;;;43.92;;
49934;SDS011;39898;41.762;26.200;2022-12-29T07:52:42;45.80;;;24.15;;
49934;SDS011;39898;41.762;26.200;2022-12-29T07:55:09;50.03;;;25.52;;
49934;SDS011;39898;41.762;26.200;2022-12-29T07:57:35;44.58;;;24.17;;
49934;SDS011;39898;41.762;26.200;2022-12-29T08:00:02;35.78;;;16.80;;
49934;SDS011;39898;41.762;26.200;2022-12-29T08:02:30;107.13;;;45.28;;
49934;SDS011;39898;41.762;26.200;2022-12-29T08:04:57;90.22;;;37.30;;
49934;SDS011;39898;41.762;26.200;2022-12-29T08:07:23;71.72;;;31.58;;
49934;SDS011;39898;41.762;26.200;2022-12-29T08:09:50;65.80;;;31.88;;
49934;SDS011;39898;41.762;26.200;2022-12-29T08:12:17;52.95;;;28.27;;
49934;SDS011;39898;41.762;26.200;2022-12-29T08:14:44;58.72;;;26.33;;
49934;SDS011;39898;41.762;26.200;2022-12-29T08:17:10;50.38;;;25.80;;
49934;SDS011;39898;41.762;26.200;2022-12-29T08:19:37;54.78;;;27.15;;
49934;SDS011;39898;41.762;26.200;2022-12-29T08:22:04;58.23;;;27.20;;
49934;SDS011;39898;41.762;26.200;2022-12-29T08:24:31;60.42;;;23.70;;
49934;SDS011;39898;41.762;26.200;2022-12-29T08:26:57;49.28;;;22.95;;
49934;SDS011;39898;41.762;26.200;2022-12-29T08:29:34;44.67;;;20.50;;
49934;SDS011;39898;41.762;26.200;2022-12-29T08:32:01;49.10;;;24.10;;
49934;SDS011;39898;41.762;26.200;2022-12-29T08:34:27;42.92;;;22.25;;
49934;SDS011;39898;41.762;26.200;2022-12-29T08:36:54;44.92;;;23.25;;
49934;SDS011;39898;41.762;26.200;2022-12-29T08:39:21;55.53;;;28.17;;
49934;SDS011;39898;41.762;26.200;2022-12-29T08:41:48;88.43;;;54.00;;
49934;SDS011;39898;41.762;26.200;2022-12-29T08:44:15;45.30;;;22.80;;
49934;SDS011;39898;41.762;26.200;2022-12-29T08:46:42;47.65;;;24.30;;
49934;SDS011;39898;41.762;26.200;2022-12-29T08:49:10;50.72;;;27.98;;
49934;SDS011;39898;41.762;26.200;2022-12-29T08:51:37;48.58;;;24.45;;
49934;SDS011;39898;41.762;26.200;2022-12-29T08:54:04;50.10;;;21.13;;
49934;SDS011;39898;41.762;26.200;2022-12-29T08:56:31;40.75;;;20.73;;
49934;SDS011;39898;41.762;26.200;2022-12-29T08:58:58;35.78;;;19.00;;
49934;SDS011;39898;41.762;26.200;2022-12-29T09:01:24;38.78;;;18.77;;
49934;SDS011;39898;41.762;26.200;2022-12-29T09:03:52;41.72;;;18.35;;
49934;SDS011;39898;41.762;26.200;2022-12-29T09:06:40;43.42;;;19.20;;
49934;SDS011;39898;41.762;26.200;2022-12-29T09:09:07;41.80;;;18.60;;
49934;SDS011;39898;41.762;26.200;2022-12-29T09:11:33;33.78;;;17.90;;
49934;SDS011;39898;41.762;26.200;2022-12-29T09:14:00;34.00;;;17.15;;
49934;SDS011;39898;41.762;26.200;2022-12-29T09:16:27;36.50;;;16.88;;
49934;SDS011;39898;41.762;26.200;2022-12-29T09:18:53;43.65;;;18.42;;
49934;SDS011;39898;41.762;26.200;2022-12-29T09:21:20;34.55;;;17.75;;
49934;SDS011;39898;41.762;26.200;2022-12-29T09:23:49;47.60;;;19.52;;
49934;SDS011;39898;41.762;26.200;2022-12-29T09:26:16;32.72;;;16.60;;
49934;SDS011;39898;41.762;26.200;2022-12-29T09:28:43;35.55;;;16.83;;
49934;SDS011;39898;41.762;26.200;2022-12-29T09:31:10;42.72;;;17.30;;
49934;SDS011;39898;41.762;26.200;2022-12-29T09:33:38;38.33;;;17.77;;
49934;SDS011;39898;41.762;26.200;2022-12-29T09:36:05;36.70;;;17.08;;
49934;SDS011;39898;41.762;26.200;2022-12-29T09:38:32;39.60;;;19.57;;
49934;SDS011;39898;41.762;26.200;2022-12-29T09:41:01;38.45;;;20.33;;
49934;SDS011;39898;41.762;26.200;2022-12-29T09:43:50;90.43;;;38.78;;
49934;SDS011;39898;41.762;26.200;2022-12-29T09:46:27;37.15;;;19.70;;
49934;SDS011;39898;41.762;26.200;2022-12-29T09:51:32;54.55;;;25.13;;
49934;SDS011;39898;41.762;26.200;2022-12-29T09:57:21;45.88;;;23.08;;
49934;SDS011;39898;41.762;26.200;2022-12-29T09:59:52;100.60;;;48.33;;
49934;SDS011;39898;41.762;26.200;2022-12-29T10:02:27;44.28;;;25.15;;
49934;SDS011;39898;41.762;26.200;2022-12-29T10:04:58;43.33;;;21.63;;
49934;SDS011;39898;41.762;26.200;2022-12-29T10:23:44;33.80;;;20.27;;
49934;SDS011;39898;41.762;26.200;2022-12-29T10:26:23;37.47;;;20.38;;
49934;SDS011;39898;41.762;26.200;2022-12-29T10:28:58;34.90;;;20.15;;
49934;SDS011;39898;41.762;26.200;2022-12-29T10:31:40;33.83;;;17.83;;
49934;SDS011;39898;41.762;26.200;2022-12-29T10:34:21;33.75;;;19.65;;
49934;SDS011;39898;41.762;26.200;2022-12-29T10:37:18;36.83;;;20.23;;
49934;SDS011;39898;41.762;26.200;2022-12-29T10:45:05;30.83;;;18.08;;
49934;SDS011;39898;41.762;26.200;2022-12-29T10:47:40;32.05;;;15.07;;
49934;SDS011;39898;41.762;26.200;2022-12-29T10:50:18;25.55;;;16.10;;
49934;SDS011;39898;41.762;26.200;2022-12-29T10:52:45;20.40;;;12.27;;
49934;SDS011;39898;41.762;26.200;2022-12-29T10:55:19;22.83;;;14.27;;
49934;SDS011;39898;41.762;26.200;2022-12-29T10:57:53;27.77;;;14.95;;
49934;SDS011;39898;41.762;26.200;2022-12-29T11:00:23;25.75;;;14.63;;
49934;SDS011;39898;41.762;26.200;2022-12-29T11:05:46;31.75;;;19.58;;
49934;SDS011;39898;41.762;26.200;2022-12-29T11:08:22;36.50;;;19.38;;
49934;SDS011;39898;41.762;26.200;2022-12-29T11:11:03;32.05;;;19.85;;
49934;SDS011;39898;41.762;26.200;2022-12-29T11:13:33;29.13;;;15.23;;
49934;SDS011;39898;41.762;26.200;2022-12-29T11:16:26;26.42;;;14.43;;
49934;SDS011;39898;41.762;26.200;2022-12-29T11:18:57;25.30;;;15.98;;
49934;SDS011;39898;41.762;26.200;2022-12-29T11:21:34;32.83;;;17.67;;
49934;SDS011;39898;41.762;26.200;2022-12-29T11:24:18;31.75;;;19.20;;
49934;SDS011;39898;41.762;26.200;2022-12-29T11:26:48;23.80;;;12.73;;
49934;SDS011;39898;41.762;26.200;2022-12-29T11:31:51;27.83;;;15.23;;
49934;SDS011;39898;41.762;26.200;2022-12-29T11:34:21;32.55;;;18.02;;
49934;SDS011;39898;41.762;26.200;2022-12-29T11:36:53;25.92;;;16.98;;
49934;SDS011;39898;41.762;26.200;2022-12-29T11:39:33;26.27;;;14.57;;
49934;SDS011;39898;41.762;26.200;2022-12-29T11:45:21;27.42;;;13.27;;
49934;SDS011;39898;41.762;26.200;2022-12-29T11:47:52;24.77;;;14.60;;
49934;SDS011;39898;41.762;26.200;2022-12-29T11:50:21;28.50;;;13.75;;
49934;SDS011;39898;41.762;26.200;2022-12-29T11:52:57;28.40;;;14.05;;
49934;SDS011;39898;41.762;26.200;2022-12-29T11:55:29;23.15;;;14.00;;
49934;SDS011;39898;41.762;26.200;2022-12-29T11:57:58;29.25;;;14.13;;
49934;SDS011;39898;41.762;26.200;2022-12-29T12:00:28;22.80;;;13.02;;
49934;SDS011;39898;41.762;26.200;2022-12-29T12:03:01;23.35;;;12.75;;
49934;SDS011;39898;41.762;26.200;2022-12-29T12:11:11;23.25;;;12.60;;
49934;SDS011;39898;41.762;26.200;2022-12-29T12:18:49;20.92;;;12.02;;
49934;SDS011;39898;41.762;26.200;2022-12-29T12:27:22;47.17;;;21.65;;
49934;SDS011;39898;41.762;26.200;2022-12-29T12:30:22;27.40;;;14.93;;
49934;SDS011;39898;41.762;26.200;2022-12-29T12:35:42;38.25;;;19.33;;
49934;SDS011;39898;41.762;26.200;2022-12-29T12:44:23;40.67;;;25.80;;
49934;SDS011;39898;41.762;26.200;2022-12-29T12:47:01;67.90;;;47.53;;
49934;SDS011;39898;41.762;26.200;2022-12-29T13:12:10;29.35;;;11.98;;
49934;SDS011;39898;41.762;26.200;2022-12-29T13:19:54;27.48;;;12.10;;
49934;SDS011;39898;41.762;26.200;2022-12-29T13:22:51;38.15;;;18.77;;
49934;SDS011;39898;41.762;26.200;2022-12-29T13:25:27;23.73;;;12.05;;
49934;SDS011;39898;41.762;26.200;2022-12-29T13:30:33;22.02;;;10.38;;
49934;SDS011;39898;41.762;26.200;2022-12-29T13:41:00;44.00;;;20.80;;
49934;SDS011;39898;41.762;26.200;2022-12-29T13:43:32;47.53;;;21.10;;
49934;SDS011;39898;41.762;26.200;2022-12-29T13:46:04;28.05;;;15.18;;
49934;SDS011;39898;41.762;26.200;2022-12-29T13:51:19;29.13;;;14.60;;
49934;SDS011;39898;41.762;26.200;2022-12-29T13:54:14;54.03;;;29.63;;
49934;SDS011;39898;41.762;26.200;2022-12-29T14:02:16;48.50;;;23.50;;
49934;SDS011;39898;41.762;26.200;2022-12-29T14:07:25;42.78;;;21.02;;
49934;SDS011;39898;41.762;26.200;2022-12-29T14:09:53;27.95;;;14.60;;
49934;SDS011;39898;41.762;26.200;2022-12-29T14:17:37;34.58;;;17.42;;
49934;SDS011;39898;41.762;26.200;2022-12-29T14:20:16;33.05;;;15.25;;
49934;SDS011;39898;41.762;26.200;2022-12-29T14:22:55;50.55;;;23.35;;
49934;SDS011;39898;41.762;26.200;2022-12-29T14:28:24;36.85;;;18.38;;
49934;SDS011;39898;41.762;26.200;2022-12-29T14:30:53;36.50;;;18.13;;
49934;SDS011;39898;41.762;26.200;2022-12-29T14:33:32;107.38;;;56.65;;
49934;SDS011;39898;41.762;26.200;2022-12-29T14:36:19;136.32;;;64.85;;
49934;SDS011;39898;41.762;26.200;2022-12-29T14:44:49;59.22;;;30.10;;
49934;SDS011;39898;41.762;26.200;2022-12-29T14:47:32;32.80;;;19.92;;
49934;SDS011;39898;41.762;26.200;2022-12-29T14:50:12;23.48;;;12.25;;
49934;SDS011;39898;41.762;26.200;2022-12-29T14:58:20;19.10;;;10.13;;
49934;SDS011;39898;41.762;26.200;2022-12-29T15:00:52;44.05;;;16.50;;
49934;SDS011;39898;41.762;26.200;2022-12-29T15:05:52;104.07;;;38.60;;
49934;SDS011;39898;41.762;26.200;2022-12-29T15:08:25;66.32;;;30.10;;
49934;SDS011;39898;41.762;26.200;2022-12-29T15:10:56;115.45;;;48.42;;
49934;SDS011;39898;41.762;26.200;2022-12-29T15:13:38;142.77;;;61.13;;
49934;SDS011;39898;41.762;26.200;2022-12-29T15:16:20;133.75;;;64.72;;
49934;SDS011;39898;41.762;26.200;2022-12-29T15:18:49;110.68;;;44.35;;
49934;SDS011;39898;41.762;26.200;2022-12-29T15:21:16;81.45;;;37.28;;
49934;SDS011;39898;41.762;26.200;2022-12-29T15:23:50;51.97;;;24.67;;
49934;SDS011;39898;41.762;26.200;2022-12-29T15:26:18;74.68;;;32.17;;
49934;SDS011;39898;41.762;26.200;2022-12-29T15:28:51;111.53;;;43.55;;
49934;SDS011;39898;41.762;26.200;2022-12-29T15:34:01;56.13;;;20.73;;
49934;SDS011;39898;41.762;26.200;2022-12-29T15:36:37;49.90;;;24.17;;
49934;SDS011;39898;41.762;26.200;2022-12-29T15:39:18;77.57;;;38.78;;
49934;SDS011;39898;41.762;26.200;2022-12-29T15:45:18;64.22;;;30.63;;
49934;SDS011;39898;41.762;26.200;2022-12-29T15:47:45;87.30;;;38.33;;
49934;SDS011;39898;41.762;26.200;2022-12-29T15:50:22;48.47;;;22.88;;
49934;SDS011;39898;41.762;26.200;2022-12-29T15:52:52;52.45;;;24.40;;
49934;SDS011;39898;41.762;26.200;2022-12-29T15:55:20;54.30;;;22.27;;
49934;SDS011;39898;41.762;26.200;2022-12-29T15:57:47;66.93;;;27.70;;
49934;SDS011;39898;41.762;26.200;2022-12-29T16:00:27;43.95;;;19.75;;
49934;SDS011;39898;41.762;26.200;2022-12-29T16:03:03;36.42;;;17.77;;
49934;SDS011;39898;41.762;26.200;2022-12-29T16:05:36;40.30;;;18.15;;
49934;SDS011;39898;41.762;26.200;2022-12-29T16:11:06;94.05;;;43.47;;
49934;SDS011;39898;41.762;26.200;2022-12-29T16:13:47;97.65;;;43.25;;
49934;SDS011;39898;41.762;26.200;2022-12-29T16:16:19;63.45;;;32.67;;
49934;SDS011;39898;41.762;26.200;2022-12-29T16:18:49;57.00;;;28.38;;
49934;SDS011;39898;41.762;26.200;2022-12-29T16:21:26;60.15;;;32.08;;
49934;SDS011;39898;41.762;26.200;2022-12-29T16:24:01;109.85;;;48.08;;
49934;SDS011;39898;41.762;26.200;2022-12-29T16:26:37;183.27;;;63.90;;
49934;SDS011;39898;41.762;26.200;2022-12-29T16:29:05;96.50;;;40.55;;
49934;SDS011;39898;41.762;26.200;2022-12-29T16:31:53;100.22;;;44.35;;
49934;SDS011;39898;41.762;26.200;2022-12-29T16:50:35;66.68;;;34.85;;
49934;SDS011;39898;41.762;26.200;2022-12-29T16:53:05;75.70;;;37.60;;
49934;SDS011;39898;41.762;26.200;2022-12-29T16:55:34;69.22;;;32.78;;
49934;SDS011;39898;41.762;26.200;2022-12-29T16:58:01;78.78;;;37.53;;
49934;SDS011;39898;41.762;26.200;2022-12-29T17:00:29;89.38;;;44.35;;
49934;SDS011;39898;41.762;26.200;2022-12-29T17:03:01;87.55;;;45.03;;
49934;SDS011;39898;41.762;26.200;2022-12-29T17:05:29;108.15;;;50.55;;
49934;SDS011;39898;41.762;26.200;2022-12-29T17:07:57;130.07;;;61.08;;
49934;SDS011;39898;41.762;26.200;2022-12-29T17:10:28;150.35;;;70.25;;
49934;SDS011;39898;41.762;26.200;2022-12-29T17:13:13;191.90;;;90.68;;
49934;SDS011;39898;41.762;26.200;2022-12-29T17:15:40;226.93;;;102.35;;
49934;SDS011;39898;41.762;26.200;2022-12-29T17:18:07;244.25;;;99.85;;
49934;SDS011;39898;41.762;26.200;2022-12-29T17:20:39;213.40;;;87.13;;
49934;SDS011;39898;41.762;26.200;2022-12-29T17:23:11;193.93;;;81.20;;
49934;SDS011;39898;41.762;26.200;2022-12-29T17:25:51;178.18;;;75.05;;
49934;SDS011;39898;41.762;26.200;2022-12-29T17:28:24;163.07;;;67.43;;
49934;SDS011;39898;41.762;26.200;2022-12-29T17:30:57;142.60;;;58.70;;
49934;SDS011;39898;41.762;26.200;2022-12-29T17:33:26;138.35;;;56.35;;
49934;SDS011;39898;41.762;26.200;2022-12-29T17:36:01;143.65;;;56.58;;
49934;SDS011;39898;41.762;26.200;2022-12-29T17:38:30;150.57;;;60.72;;
49934;SDS011;39898;41.762;26.200;2022-12-29T17:41:01;141.93;;;56.42;;
49934;SDS011;39898;41.762;26.200;2022-12-29T17:43:28;144.68;;;57.22;;
49934;SDS011;39898;41.762;26.200;2022-12-29T17:46:02;132.40;;;55.15;;
49934;SDS011;39898;41.762;26.200;2022-12-29T17:48:33;157.68;;;63.30;;
49934;SDS011;39898;41.762;26.200;2022-12-29T17:51:01;144.00;;;57.97;;
49934;SDS011;39898;41.762;26.200;2022-12-29T17:53:29;118.55;;;51.17;;
49934;SDS011;39898;41.762;26.200;2022-12-29T17:55:56;127.63;;;55.70;;
49934;SDS011;39898;41.762;26.200;2022-12-29T17:58:25;89.25;;;42.05;;
49934;SDS011;39898;41.762;26.200;2022-12-29T18:00:54;102.55;;;48.15;;
49934;SDS011;39898;41.762;26.200;2022-12-29T18:05:55;73.95;;;36.28;;